Terminal Aerodrome Forecast
Issued by NWS Denver/Boulder, CO

Home | Current Version | Previous Version | Text Only | Print | Product List | Glossary On
Versions: 1 2 3 4 5 6 7 8 9 10 11 12 13 14 15 16 17 18 19 20 21 22 23 24 25 26 27 28 29 30 31 32 33 34 35 36 37 38 39 40 41 42 43 44 45 46 47 48 49 50
000
FTUS45 KBOU 311120
TAFDEN
TAF
KDEN 311120Z 3112/0118 30006KT P6SM VCSH SCT090 BKN130
     FM311600 35009KT P6SM SCT070 BKN120
     FM311800 01011G17KT P6SM SCT070 BKN110 PROB30 3121/0101 -TSRA
      BKN060CB
     FM010200 14008KT P6SM SCT070 BKN120
     FM010500 18008KT P6SM SCT120 BKN150
     FM010800 21010KT P6SM SCT120 SCT200=

USA.gov is the U.S. government's official web portal to all federal, state and local government web resources and services.